sensor_id;sensor_type;location;lat;lon;timestamp;P1;durP1;ratioP1;P2;durP2;ratioP2
60464;SDS011;46314;52.392;9.758;2024-02-26T00:01:20;5.30;;;3.88;;
60464;SDS011;46314;52.392;9.758;2024-02-26T00:03:48;5.32;;;4.80;;
60464;SDS011;46314;52.392;9.758;2024-02-26T00:06:15;7.15;;;5.35;;
60464;SDS011;46314;52.392;9.758;2024-02-26T00:08:41;5.97;;;4.97;;
60464;SDS011;46314;52.392;9.758;2024-02-26T00:11:08;5.97;;;4.95;;
60464;SDS011;46314;52.392;9.758;2024-02-26T00:13:35;5.28;;;4.40;;
60464;SDS011;46314;52.392;9.758;2024-02-26T00:16:02;6.57;;;4.60;;
60464;SDS011;46314;52.392;9.758;2024-02-26T00:18:28;5.30;;;4.80;;
60464;SDS011;46314;52.392;9.758;2024-02-26T00:20:56;6.97;;;4.80;;
60464;SDS011;46314;52.392;9.758;2024-02-26T00:23:23;5.95;;;4.40;;
60464;SDS011;46314;52.392;9.758;2024-02-26T00:25:49;4.68;;;4.28;;
60464;SDS011;46314;52.392;9.758;2024-02-26T00:28:16;4.85;;;4.22;;
60464;SDS011;46314;52.392;9.758;2024-02-26T00:30:42;5.97;;;3.63;;
60464;SDS011;46314;52.392;9.758;2024-02-26T00:33:09;4.95;;;4.15;;
60464;SDS011;46314;52.392;9.758;2024-02-26T00:35:35;7.18;;;4.75;;
60464;SDS011;46314;52.392;9.758;2024-02-26T00:38:03;5.13;;;4.43;;
60464;SDS011;46314;52.392;9.758;2024-02-26T00:40:30;5.43;;;4.57;;
60464;SDS011;46314;52.392;9.758;2024-02-26T00:42:56;7.75;;;4.85;;
60464;SDS011;46314;52.392;9.758;2024-02-26T00:45:23;5.82;;;4.88;;
60464;SDS011;46314;52.392;9.758;2024-02-26T00:47:50;7.60;;;5.55;;
60464;SDS011;46314;52.392;9.758;2024-02-26T00:50:17;5.47;;;4.80;;
60464;SDS011;46314;52.392;9.758;2024-02-26T00:52:43;6.53;;;4.55;;
60464;SDS011;46314;52.392;9.758;2024-02-26T00:55:11;5.07;;;4.47;;
60464;SDS011;46314;52.392;9.758;2024-02-26T00:57:38;7.05;;;4.97;;
60464;SDS011;46314;52.392;9.758;2024-02-26T01:00:05;6.68;;;4.65;;
60464;SDS011;46314;52.392;9.758;2024-02-26T01:02:32;5.80;;;4.68;;
60464;SDS011;46314;52.392;9.758;2024-02-26T01:04:58;8.07;;;5.97;;
60464;SDS011;46314;52.392;9.758;2024-02-26T01:07:25;6.65;;;5.53;;
60464;SDS011;46314;52.392;9.758;2024-02-26T01:09:51;7.72;;;5.18;;
60464;SDS011;46314;52.392;9.758;2024-02-26T01:12:19;5.97;;;5.00;;
60464;SDS011;46314;52.392;9.758;2024-02-26T01:14:45;7.70;;;4.78;;
60464;SDS011;46314;52.392;9.758;2024-02-26T01:17:12;7.22;;;5.10;;
60464;SDS011;46314;52.392;9.758;2024-02-26T01:19:38;5.70;;;4.35;;
60464;SDS011;46314;52.392;9.758;2024-02-26T01:22:05;8.75;;;5.32;;
60464;SDS011;46314;52.392;9.758;2024-02-26T01:24:31;6.53;;;4.80;;
60464;SDS011;46314;52.392;9.758;2024-02-26T01:26:58;7.53;;;5.13;;
60464;SDS011;46314;52.392;9.758;2024-02-26T01:29:25;6.38;;;4.40;;
60464;SDS011;46314;52.392;9.758;2024-02-26T01:31:52;6.93;;;4.55;;
60464;SDS011;46314;52.392;9.758;2024-02-26T01:34:18;7.85;;;4.55;;
60464;SDS011;46314;52.392;9.758;2024-02-26T01:36:45;6.43;;;5.05;;
60464;SDS011;46314;52.392;9.758;2024-02-26T01:39:11;6.35;;;4.25;;
60464;SDS011;46314;52.392;9.758;2024-02-26T01:41:38;9.88;;;4.22;;
60464;SDS011;46314;52.392;9.758;2024-02-26T01:44:05;5.25;;;3.90;;
60464;SDS011;46314;52.392;9.758;2024-02-26T01:46:32;5.70;;;4.63;;
60464;SDS011;46314;52.392;9.758;2024-02-26T01:49:02;4.57;;;3.83;;
60464;SDS011;46314;52.392;9.758;2024-02-26T01:51:29;6.50;;;4.55;;
60464;SDS011;46314;52.392;9.758;2024-02-26T01:53:56;4.65;;;4.13;;
60464;SDS011;46314;52.392;9.758;2024-02-26T01:56:24;5.35;;;3.80;;
60464;SDS011;46314;52.392;9.758;2024-02-26T01:58:50;7.07;;;4.18;;
60464;SDS011;46314;52.392;9.758;2024-02-26T02:01:17;4.32;;;3.58;;
60464;SDS011;46314;52.392;9.758;2024-02-26T02:03:48;6.50;;;4.63;;
60464;SDS011;46314;52.392;9.758;2024-02-26T02:06:15;4.85;;;3.80;;
60464;SDS011;46314;52.392;9.758;2024-02-26T02:08:42;6.65;;;4.18;;
60464;SDS011;46314;52.392;9.758;2024-02-26T02:11:09;5.22;;;3.85;;
60464;SDS011;46314;52.392;9.758;2024-02-26T02:13:35;4.97;;;3.45;;
60464;SDS011;46314;52.392;9.758;2024-02-26T02:16:02;4.30;;;3.30;;
60464;SDS011;46314;52.392;9.758;2024-02-26T02:18:29;4.00;;;3.08;;
60464;SDS011;46314;52.392;9.758;2024-02-26T02:20:57;4.80;;;3.55;;
60464;SDS011;46314;52.392;9.758;2024-02-26T02:23:26;5.10;;;3.75;;
60464;SDS011;46314;52.392;9.758;2024-02-26T02:25:52;5.72;;;3.22;;
60464;SDS011;46314;52.392;9.758;2024-02-26T02:28:19;7.30;;;3.95;;
60464;SDS011;46314;52.392;9.758;2024-02-26T02:30:46;5.55;;;3.75;;
60464;SDS011;46314;52.392;9.758;2024-02-26T02:33:12;4.32;;;2.83;;
60464;SDS011;46314;52.392;9.758;2024-02-26T02:35:39;3.85;;;3.28;;
60464;SDS011;46314;52.392;9.758;2024-02-26T02:38:07;4.25;;;3.63;;
60464;SDS011;46314;52.392;9.758;2024-02-26T02:40:34;4.05;;;3.50;;
60464;SDS011;46314;52.392;9.758;2024-02-26T02:43:01;4.63;;;3.97;;
60464;SDS011;46314;52.392;9.758;2024-02-26T02:45:27;5.53;;;3.28;;
60464;SDS011;46314;52.392;9.758;2024-02-26T02:47:54;3.50;;;3.20;;
60464;SDS011;46314;52.392;9.758;2024-02-26T02:50:20;3.53;;;3.22;;
60464;SDS011;46314;52.392;9.758;2024-02-26T02:52:47;4.63;;;3.30;;
60464;SDS011;46314;52.392;9.758;2024-02-26T02:55:14;3.50;;;3.00;;
60464;SDS011;46314;52.392;9.758;2024-02-26T02:57:41;3.45;;;3.15;;
60464;SDS011;46314;52.392;9.758;2024-02-26T03:00:08;4.65;;;3.95;;
60464;SDS011;46314;52.392;9.758;2024-02-26T03:02:35;4.63;;;3.30;;
60464;SDS011;46314;52.392;9.758;2024-02-26T03:05:02;4.68;;;3.60;;
60464;SDS011;46314;52.392;9.758;2024-02-26T03:07:28;4.60;;;3.42;;
60464;SDS011;46314;52.392;9.758;2024-02-26T03:09:56;4.43;;;3.45;;
60464;SDS011;46314;52.392;9.758;2024-02-26T03:12:24;5.38;;;3.30;;
60464;SDS011;46314;52.392;9.758;2024-02-26T03:14:50;4.72;;;3.38;;
60464;SDS011;46314;52.392;9.758;2024-02-26T03:17:17;3.92;;;3.05;;
60464;SDS011;46314;52.392;9.758;2024-02-26T03:19:43;2.90;;;2.58;;
60464;SDS011;46314;52.392;9.758;2024-02-26T03:22:10;3.92;;;3.10;;
60464;SDS011;46314;52.392;9.758;2024-02-26T03:24:36;4.03;;;3.58;;
60464;SDS011;46314;52.392;9.758;2024-02-26T03:27:03;3.42;;;2.95;;
60464;SDS011;46314;52.392;9.758;2024-02-26T03:29:31;3.97;;;3.17;;
60464;SDS011;46314;52.392;9.758;2024-02-26T03:31:57;3.33;;;3.00;;
60464;SDS011;46314;52.392;9.758;2024-02-26T03:34:23;4.45;;;3.42;;
60464;SDS011;46314;52.392;9.758;2024-02-26T03:36:50;3.97;;;2.92;;
60464;SDS011;46314;52.392;9.758;2024-02-26T03:39:17;5.30;;;2.95;;
60464;SDS011;46314;52.392;9.758;2024-02-26T03:41:43;4.20;;;3.42;;
60464;SDS011;46314;52.392;9.758;2024-02-26T03:44:10;4.47;;;2.75;;
60464;SDS011;46314;52.392;9.758;2024-02-26T03:46:37;5.50;;;3.78;;
60464;SDS011;46314;52.392;9.758;2024-02-26T03:49:04;7.43;;;4.30;;
60464;SDS011;46314;52.392;9.758;2024-02-26T03:51:31;4.88;;;3.20;;
60464;SDS011;46314;52.392;9.758;2024-02-26T03:53:57;6.68;;;3.90;;
60464;SDS011;46314;52.392;9.758;2024-02-26T03:56:24;3.85;;;2.85;;
60464;SDS011;46314;52.392;9.758;2024-02-26T03:58:51;4.47;;;3.67;;
60464;SDS011;46314;52.392;9.758;2024-02-26T04:01:18;6.45;;;3.85;;
60464;SDS011;46314;52.392;9.758;2024-02-26T04:03:46;4.47;;;4.07;;
60464;SDS011;46314;52.392;9.758;2024-02-26T04:06:12;5.78;;;3.78;;
60464;SDS011;46314;52.392;9.758;2024-02-26T04:08:39;5.63;;;3.25;;
60464;SDS011;46314;52.392;9.758;2024-02-26T04:11:05;5.28;;;3.20;;
60464;SDS011;46314;52.392;9.758;2024-02-26T04:13:31;4.57;;;3.65;;
60464;SDS011;46314;52.392;9.758;2024-02-26T04:15:58;4.80;;;3.40;;
60464;SDS011;46314;52.392;9.758;2024-02-26T04:18:24;3.25;;;2.92;;
60464;SDS011;46314;52.392;9.758;2024-02-26T04:20:52;5.43;;;3.03;;
60464;SDS011;46314;52.392;9.758;2024-02-26T04:23:19;5.05;;;3.33;;
60464;SDS011;46314;52.392;9.758;2024-02-26T04:25:46;3.90;;;3.30;;
60464;SDS011;46314;52.392;9.758;2024-02-26T04:28:12;3.53;;;2.63;;
60464;SDS011;46314;52.392;9.758;2024-02-26T04:30:39;4.85;;;2.80;;
60464;SDS011;46314;52.392;9.758;2024-02-26T04:33:05;4.15;;;3.38;;
60464;SDS011;46314;52.392;9.758;2024-02-26T04:35:32;3.10;;;2.80;;
60464;SDS011;46314;52.392;9.758;2024-02-26T04:38:00;4.20;;;3.20;;
60464;SDS011;46314;52.392;9.758;2024-02-26T04:40:26;4.20;;;3.30;;
60464;SDS011;46314;52.392;9.758;2024-02-26T04:42:52;3.95;;;3.20;;
60464;SDS011;46314;52.392;9.758;2024-02-26T04:45:19;6.20;;;3.75;;
60464;SDS011;46314;52.392;9.758;2024-02-26T04:47:47;4.20;;;3.33;;
60464;SDS011;46314;52.392;9.758;2024-02-26T04:50:13;4.35;;;3.10;;
60464;SDS011;46314;52.392;9.758;2024-02-26T04:52:40;5.00;;;4.18;;
60464;SDS011;46314;52.392;9.758;2024-02-26T04:55:08;3.65;;;3.05;;
60464;SDS011;46314;52.392;9.758;2024-02-26T04:57:35;4.97;;;3.58;;
60464;SDS011;46314;52.392;9.758;2024-02-26T05:00:01;5.40;;;3.60;;
60464;SDS011;46314;52.392;9.758;2024-02-26T05:02:28;4.60;;;3.60;;
60464;SDS011;46314;52.392;9.758;2024-02-26T05:04:54;4.85;;;3.97;;
60464;SDS011;46314;52.392;9.758;2024-02-26T05:07:20;4.80;;;3.38;;
60464;SDS011;46314;52.392;9.758;2024-02-26T05:09:47;6.28;;;3.50;;
60464;SDS011;46314;52.392;9.758;2024-02-26T05:12:14;4.15;;;3.55;;
60464;SDS011;46314;52.392;9.758;2024-02-26T05:14:41;5.55;;;3.22;;
60464;SDS011;46314;52.392;9.758;2024-02-26T05:17:07;7.32;;;3.80;;
60464;SDS011;46314;52.392;9.758;2024-02-26T05:19:34;4.22;;;3.83;;
60464;SDS011;46314;52.392;9.758;2024-02-26T05:22:00;5.35;;;3.58;;
60464;SDS011;46314;52.392;9.758;2024-02-26T05:24:27;5.70;;;4.30;;
60464;SDS011;46314;52.392;9.758;2024-02-26T05:26:53;5.20;;;3.35;;
60464;SDS011;46314;52.392;9.758;2024-02-26T05:29:21;4.38;;;3.47;;
60464;SDS011;46314;52.392;9.758;2024-02-26T05:31:48;6.05;;;4.10;;
60464;SDS011;46314;52.392;9.758;2024-02-26T05:34:14;4.45;;;3.63;;
60464;SDS011;46314;52.392;9.758;2024-02-26T05:36:41;4.00;;;3.60;;
60464;SDS011;46314;52.392;9.758;2024-02-26T05:39:07;5.53;;;3.97;;
60464;SDS011;46314;52.392;9.758;2024-02-26T05:41:39;4.57;;;3.92;;
60464;SDS011;46314;52.392;9.758;2024-02-26T05:44:06;4.80;;;3.70;;
60464;SDS011;46314;52.392;9.758;2024-02-26T05:46:34;4.75;;;3.70;;
60464;SDS011;46314;52.392;9.758;2024-02-26T05:49:00;4.97;;;3.22;;
60464;SDS011;46314;52.392;9.758;2024-02-26T05:51:27;5.93;;;4.22;;
60464;SDS011;46314;52.392;9.758;2024-02-26T05:53:53;4.20;;;3.45;;
60464;SDS011;46314;52.392;9.758;2024-02-26T05:56:21;4.20;;;3.45;;
60464;SDS011;46314;52.392;9.758;2024-02-26T05:58:47;5.57;;;3.72;;
60464;SDS011;46314;52.392;9.758;2024-02-26T06:01:15;4.65;;;4.15;;
60464;SDS011;46314;52.392;9.758;2024-02-26T06:03:43;5.95;;;3.92;;
60464;SDS011;46314;52.392;9.758;2024-02-26T06:06:09;5.55;;;3.50;;
60464;SDS011;46314;52.392;9.758;2024-02-26T06:08:36;4.18;;;3.15;;
60464;SDS011;46314;52.392;9.758;2024-02-26T06:11:04;5.22;;;3.47;;
60464;SDS011;46314;52.392;9.758;2024-02-26T06:13:31;4.57;;;3.38;;
60464;SDS011;46314;52.392;9.758;2024-02-26T06:15:58;6.22;;;3.40;;
60464;SDS011;46314;52.392;9.758;2024-02-26T06:18:24;3.97;;;3.22;;
60464;SDS011;46314;52.392;9.758;2024-02-26T06:20:52;4.93;;;3.50;;
60464;SDS011;46314;52.392;9.758;2024-02-26T06:23:19;6.00;;;3.47;;
60464;SDS011;46314;52.392;9.758;2024-02-26T06:25:45;4.00;;;3.47;;
60464;SDS011;46314;52.392;9.758;2024-02-26T06:28:12;4.50;;;3.38;;
60464;SDS011;46314;52.392;9.758;2024-02-26T06:30:38;5.10;;;3.80;;
60464;SDS011;46314;52.392;9.758;2024-02-26T06:33:04;5.03;;;3.63;;
60464;SDS011;46314;52.392;9.758;2024-02-26T06:35:31;4.88;;;3.63;;
60464;SDS011;46314;52.392;9.758;2024-02-26T06:37:59;4.43;;;3.70;;
60464;SDS011;46314;52.392;9.758;2024-02-26T06:40:26;5.07;;;3.78;;
60464;SDS011;46314;52.392;9.758;2024-02-26T06:42:52;5.63;;;3.33;;
60464;SDS011;46314;52.392;9.758;2024-02-26T06:45:19;8.63;;;4.80;;
60464;SDS011;46314;52.392;9.758;2024-02-26T06:47:47;5.38;;;4.05;;
60464;SDS011;46314;52.392;9.758;2024-02-26T06:50:13;5.53;;;4.20;;
60464;SDS011;46314;52.392;9.758;2024-02-26T06:52:40;6.70;;;4.18;;
60464;SDS011;46314;52.392;9.758;2024-02-26T06:55:08;5.50;;;4.03;;
60464;SDS011;46314;52.392;9.758;2024-02-26T06:57:35;8.02;;;4.90;;
60464;SDS011;46314;52.392;9.758;2024-02-26T07:00:01;5.03;;;4.50;;
60464;SDS011;46314;52.392;9.758;2024-02-26T07:02:28;9.25;;;4.63;;
60464;SDS011;46314;52.392;9.758;2024-02-26T07:04:54;6.80;;;4.75;;
60464;SDS011;46314;52.392;9.758;2024-02-26T07:07:21;6.60;;;4.80;;
60464;SDS011;46314;52.392;9.758;2024-02-26T07:09:47;6.95;;;4.60;;
60464;SDS011;46314;52.392;9.758;2024-02-26T07:12:15;6.22;;;4.22;;
60464;SDS011;46314;52.392;9.758;2024-02-26T07:14:42;7.80;;;4.63;;
60464;SDS011;46314;52.392;9.758;2024-02-26T07:17:09;6.13;;;4.85;;
60464;SDS011;46314;52.392;9.758;2024-02-26T07:19:35;5.65;;;4.68;;
60464;SDS011;46314;52.392;9.758;2024-02-26T07:22:01;7.00;;;4.85;;
60464;SDS011;46314;52.392;9.758;2024-02-26T07:24:28;4.80;;;4.10;;
60464;SDS011;46314;52.392;9.758;2024-02-26T07:26:54;4.88;;;4.28;;
60464;SDS011;46314;52.392;9.758;2024-02-26T07:29:22;5.78;;;5.15;;
60464;SDS011;46314;52.392;9.758;2024-02-26T07:31:49;5.93;;;4.80;;
60464;SDS011;46314;52.392;9.758;2024-02-26T07:34:15;5.88;;;4.72;;
60464;SDS011;46314;52.392;9.758;2024-02-26T07:36:42;7.47;;;4.82;;
60464;SDS011;46314;52.392;9.758;2024-02-26T07:39:08;7.22;;;4.93;;
60464;SDS011;46314;52.392;9.758;2024-02-26T07:41:35;6.05;;;4.72;;
60464;SDS011;46314;52.392;9.758;2024-02-26T07:44:01;8.63;;;5.25;;
60464;SDS011;46314;52.392;9.758;2024-02-26T07:46:29;7.22;;;4.28;;
60464;SDS011;46314;52.392;9.758;2024-02-26T07:48:56;7.28;;;5.43;;
60464;SDS011;46314;52.392;9.758;2024-02-26T07:51:22;7.93;;;5.20;;
60464;SDS011;46314;52.392;9.758;2024-02-26T07:53:49;6.78;;;4.95;;
60464;SDS011;46314;52.392;9.758;2024-02-26T07:56:15;7.00;;;4.90;;
60464;SDS011;46314;52.392;9.758;2024-02-26T07:58:42;6.75;;;4.97;;
60464;SDS011;46314;52.392;9.758;2024-02-26T08:01:08;5.28;;;4.78;;
60464;SDS011;46314;52.392;9.758;2024-02-26T08:03:38;6.45;;;4.90;;
60464;SDS011;46314;52.392;9.758;2024-02-26T08:06:04;5.18;;;4.25;;
60464;SDS011;46314;52.392;9.758;2024-02-26T08:08:31;6.70;;;4.70;;
60464;SDS011;46314;52.392;9.758;2024-02-26T08:10:57;8.15;;;4.85;;
60464;SDS011;46314;52.392;9.758;2024-02-26T08:13:24;7.57;;;5.35;;
60464;SDS011;46314;52.392;9.758;2024-02-26T08:15:50;6.25;;;5.35;;
60464;SDS011;46314;52.392;9.758;2024-02-26T08:18:17;10.60;;;5.53;;
60464;SDS011;46314;52.392;9.758;2024-02-26T08:20:45;7.35;;;5.40;;
60464;SDS011;46314;52.392;9.758;2024-02-26T08:23:11;5.30;;;4.80;;
60464;SDS011;46314;52.392;9.758;2024-02-26T08:25:38;8.32;;;4.10;;
60464;SDS011;46314;52.392;9.758;2024-02-26T08:28:04;7.57;;;4.50;;
60464;SDS011;46314;52.392;9.758;2024-02-26T08:30:31;4.40;;;3.72;;
60464;SDS011;46314;52.392;9.758;2024-02-26T08:32:58;5.22;;;4.57;;
60464;SDS011;46314;52.392;9.758;2024-02-26T08:35:25;4.70;;;4.28;;
60464;SDS011;46314;52.392;9.758;2024-02-26T08:37:52;6.35;;;3.85;;
60464;SDS011;46314;52.392;9.758;2024-02-26T08:40:19;4.55;;;4.10;;
60464;SDS011;46314;52.392;9.758;2024-02-26T08:42:45;5.75;;;3.90;;
60464;SDS011;46314;52.392;9.758;2024-02-26T08:45:12;5.80;;;3.88;;
60464;SDS011;46314;52.392;9.758;2024-02-26T08:47:39;4.15;;;3.28;;
60464;SDS011;46314;52.392;9.758;2024-02-26T08:50:06;4.72;;;3.75;;
60464;SDS011;46314;52.392;9.758;2024-02-26T08:52:33;3.65;;;3.10;;
60464;SDS011;46314;52.392;9.758;2024-02-26T08:55:00;4.68;;;2.55;;
60464;SDS011;46314;52.392;9.758;2024-02-26T08:57:27;3.92;;;3.28;;
60464;SDS011;46314;52.392;9.758;2024-02-26T08:59:54;4.78;;;3.00;;
60464;SDS011;46314;52.392;9.758;2024-02-26T09:02:20;4.20;;;2.90;;
60464;SDS011;46314;52.392;9.758;2024-02-26T09:04:47;3.30;;;2.72;;
60464;SDS011;46314;52.392;9.758;2024-02-26T09:07:13;4.53;;;3.50;;
60464;SDS011;46314;52.392;9.758;2024-02-26T09:09:40;4.40;;;3.20;;
60464;SDS011;46314;52.392;9.758;2024-02-26T09:12:08;5.03;;;2.90;;
60464;SDS011;46314;52.392;9.758;2024-02-26T09:14:34;3.45;;;2.70;;
60464;SDS011;46314;52.392;9.758;2024-02-26T09:17:01;3.72;;;2.67;;
60464;SDS011;46314;52.392;9.758;2024-02-26T09:19:27;2.95;;;2.40;;
60464;SDS011;46314;52.392;9.758;2024-02-26T09:21:54;3.88;;;2.80;;
60464;SDS011;46314;52.392;9.758;2024-02-26T09:24:21;8.25;;;2.30;;
60464;SDS011;46314;52.392;9.758;2024-02-26T09:26:47;3.53;;;2.72;;
60464;SDS011;46314;52.392;9.758;2024-02-26T09:29:15;3.85;;;3.15;;
60464;SDS011;46314;52.392;9.758;2024-02-26T09:31:41;6.13;;;3.33;;
60464;SDS011;46314;52.392;9.758;2024-02-26T09:34:08;5.15;;;3.25;;
60464;SDS011;46314;52.392;9.758;2024-02-26T09:36:34;5.20;;;3.05;;
60464;SDS011;46314;52.392;9.758;2024-02-26T09:39:01;4.65;;;3.33;;
60464;SDS011;46314;52.392;9.758;2024-02-26T09:41:28;3.60;;;2.50;;
60464;SDS011;46314;52.392;9.758;2024-02-26T09:43:57;4.55;;;2.50;;
60464;SDS011;46314;52.392;9.758;2024-02-26T09:46:25;4.13;;;3.15;;
60464;SDS011;46314;52.392;9.758;2024-02-26T09:48:52;4.43;;;2.38;;
60464;SDS011;46314;52.392;9.758;2024-02-26T09:51:19;3.55;;;2.53;;
60464;SDS011;46314;52.392;9.758;2024-02-26T09:53:48;3.13;;;2.40;;
60464;SDS011;46314;52.392;9.758;2024-02-26T09:56:18;4.97;;;2.72;;
60464;SDS011;46314;52.392;9.758;2024-02-26T09:58:45;3.60;;;2.53;;
60464;SDS011;46314;52.392;9.758;2024-02-26T10:01:13;4.47;;;3.17;;
60464;SDS011;46314;52.392;9.758;2024-02-26T10:03:44;3.47;;;2.63;;
60464;SDS011;46314;52.392;9.758;2024-02-26T10:06:15;3.92;;;2.75;;
60464;SDS011;46314;52.392;9.758;2024-02-26T10:08:42;3.97;;;2.83;;
60464;SDS011;46314;52.392;9.758;2024-02-26T10:11:10;3.60;;;2.83;;
60464;SDS011;46314;52.392;9.758;2024-02-26T10:13:36;4.10;;;2.60;;
60464;SDS011;46314;52.392;9.758;2024-02-26T10:16:03;3.63;;;2.85;;
60464;SDS011;46314;52.392;9.758;2024-02-26T10:21:17;4.13;;;3.00;;
60464;SDS011;46314;52.392;9.758;2024-02-26T10:23:46;4.22;;;3.03;;
60464;SDS011;46314;52.392;9.758;2024-02-26T10:26:13;4.22;;;2.95;;
60464;SDS011;46314;52.392;9.758;2024-02-26T10:28:41;3.30;;;2.67;;
60464;SDS011;46314;52.392;9.758;2024-02-26T10:31:08;3.80;;;3.13;;
60464;SDS011;46314;52.392;9.758;2024-02-26T10:33:34;4.65;;;2.83;;
60464;SDS011;46314;52.392;9.758;2024-02-26T10:36:06;4.72;;;2.80;;
60464;SDS011;46314;52.392;9.758;2024-02-26T10:38:34;3.25;;;2.95;;
60464;SDS011;46314;52.392;9.758;2024-02-26T10:41:01;5.40;;;3.33;;
60464;SDS011;46314;52.392;9.758;2024-02-26T10:43:27;8.25;;;3.20;;
60464;SDS011;46314;52.392;9.758;2024-02-26T10:45:54;4.97;;;3.45;;
60464;SDS011;46314;52.392;9.758;2024-02-26T10:48:21;4.93;;;3.10;;
60464;SDS011;46314;52.392;9.758;2024-02-26T10:50:48;4.65;;;3.63;;
60464;SDS011;46314;52.392;9.758;2024-02-26T10:53:16;4.15;;;3.20;;
60464;SDS011;46314;52.392;9.758;2024-02-26T10:55:45;4.35;;;3.13;;
60464;SDS011;46314;52.392;9.758;2024-02-26T10:58:15;4.07;;;3.47;;
60464;SDS011;46314;52.392;9.758;2024-02-26T11:00:43;3.97;;;3.28;;
60464;SDS011;46314;52.392;9.758;2024-02-26T11:03:09;3.83;;;3.40;;
60464;SDS011;46314;52.392;9.758;2024-02-26T11:05:37;5.65;;;3.88;;
60464;SDS011;46314;52.392;9.758;2024-02-26T11:08:06;3.67;;;3.35;;
60464;SDS011;46314;52.392;9.758;2024-02-26T11:10:34;4.95;;;3.03;;
60464;SDS011;46314;52.392;9.758;2024-02-26T11:13:02;5.03;;;3.50;;
60464;SDS011;46314;52.392;9.758;2024-02-26T11:15:31;4.50;;;3.65;;
60464;SDS011;46314;52.392;9.758;2024-02-26T11:17:58;5.03;;;3.70;;
60464;SDS011;46314;52.392;9.758;2024-02-26T11:20:25;4.53;;;3.40;;
60464;SDS011;46314;52.392;9.758;2024-02-26T11:22:54;4.93;;;3.63;;
60464;SDS011;46314;52.392;9.758;2024-02-26T11:25:21;3.95;;;3.38;;
60464;SDS011;46314;52.392;9.758;2024-02-26T11:27:50;5.90;;;3.53;;
60464;SDS011;46314;52.392;9.758;2024-02-26T11:30:20;3.80;;;3.42;;
60464;SDS011;46314;52.392;9.758;2024-02-26T11:32:49;3.70;;;3.30;;
60464;SDS011;46314;52.392;9.758;2024-02-26T11:35:16;4.28;;;3.28;;
60464;SDS011;46314;52.392;9.758;2024-02-26T11:37:50;5.78;;;3.33;;
60464;SDS011;46314;52.392;9.758;2024-02-26T11:40:17;5.35;;;3.47;;
60464;SDS011;46314;52.392;9.758;2024-02-26T11:42:44;4.28;;;3.10;;
60464;SDS011;46314;52.392;9.758;2024-02-26T11:48:12;3.72;;;2.85;;
60464;SDS011;46314;52.392;9.758;2024-02-26T11:50:40;5.60;;;3.42;;
60464;SDS011;46314;52.392;9.758;2024-02-26T11:53:21;3.95;;;3.30;;
60464;SDS011;46314;52.392;9.758;2024-02-26T11:55:49;4.53;;;3.15;;
60464;SDS011;46314;52.392;9.758;2024-02-26T11:58:48;4.05;;;3.63;;
60464;SDS011;46314;52.392;9.758;2024-02-26T12:04:05;3.63;;;3.13;;
60464;SDS011;46314;52.392;9.758;2024-02-26T12:06:39;5.25;;;3.28;;
60464;SDS011;46314;52.392;9.758;2024-02-26T12:09:08;5.70;;;3.83;;
60464;SDS011;46314;52.392;9.758;2024-02-26T12:11:36;4.10;;;3.60;;
60464;SDS011;46314;52.392;9.758;2024-02-26T12:14:04;4.15;;;3.63;;
60464;SDS011;46314;52.392;9.758;2024-02-26T12:16:34;4.22;;;3.25;;
60464;SDS011;46314;52.392;9.758;2024-02-26T12:19:02;4.25;;;2.97;;
60464;SDS011;46314;52.392;9.758;2024-02-26T12:21:32;4.18;;;3.58;;
60464;SDS011;46314;52.392;9.758;2024-02-26T12:24:06;4.93;;;3.67;;
60464;SDS011;46314;52.392;9.758;2024-02-26T12:26:36;6.18;;;4.20;;
60464;SDS011;46314;52.392;9.758;2024-02-26T12:29:02;3.55;;;3.25;;
60464;SDS011;46314;52.392;9.758;2024-02-26T12:31:29;5.70;;;3.88;;
60464;SDS011;46314;52.392;9.758;2024-02-26T12:33:55;4.32;;;3.40;;
60464;SDS011;46314;52.392;9.758;2024-02-26T12:36:22;6.00;;;4.10;;
60464;SDS011;46314;52.392;9.758;2024-02-26T12:38:50;5.05;;;3.85;;
60464;SDS011;46314;52.392;9.758;2024-02-26T12:41:17;5.20;;;3.70;;
60464;SDS011;46314;52.392;9.758;2024-02-26T12:43:43;4.15;;;3.75;;
60464;SDS011;46314;52.392;9.758;2024-02-26T12:46:12;4.63;;;3.67;;
60464;SDS011;46314;52.392;9.758;2024-02-26T12:48:41;5.90;;;3.72;;
60464;SDS011;46314;52.392;9.758;2024-02-26T12:51:09;4.45;;;3.60;;
60464;SDS011;46314;52.392;9.758;2024-02-26T12:53:36;4.93;;;4.10;;
60464;SDS011;46314;52.392;9.758;2024-02-26T12:56:06;6.05;;;4.35;;
60464;SDS011;46314;52.392;9.758;2024-02-26T12:58:33;5.63;;;4.47;;
60464;SDS011;46314;52.392;9.758;2024-02-26T13:01:01;4.53;;;4.13;;
60464;SDS011;46314;52.392;9.758;2024-02-26T13:03:28;7.05;;;4.32;;
60464;SDS011;46314;52.392;9.758;2024-02-26T13:05:55;4.80;;;3.55;;
60464;SDS011;46314;52.392;9.758;2024-02-26T13:08:23;4.53;;;3.70;;
60464;SDS011;46314;52.392;9.758;2024-02-26T13:10:50;3.80;;;3.40;;
60464;SDS011;46314;52.392;9.758;2024-02-26T13:13:17;5.78;;;3.83;;
60464;SDS011;46314;52.392;9.758;2024-02-26T13:15:45;4.80;;;3.53;;
60464;SDS011;46314;52.392;9.758;2024-02-26T13:18:12;15.82;;;4.32;;
60464;SDS011;46314;52.392;9.758;2024-02-26T13:20:40;4.35;;;3.47;;
60464;SDS011;46314;52.392;9.758;2024-02-26T13:23:07;4.75;;;4.15;;
60464;SDS011;46314;52.392;9.758;2024-02-26T13:25:36;6.43;;;4.40;;
60464;SDS011;46314;52.392;9.758;2024-02-26T13:28:07;5.80;;;3.03;;
60464;SDS011;46314;52.392;9.758;2024-02-26T13:30:35;4.43;;;3.80;;
60464;SDS011;46314;52.392;9.758;2024-02-26T13:33:09;4.18;;;3.78;;
60464;SDS011;46314;52.392;9.758;2024-02-26T13:35:36;4.28;;;3.35;;
60464;SDS011;46314;52.392;9.758;2024-02-26T13:38:02;3.88;;;3.00;;
60464;SDS011;46314;52.392;9.758;2024-02-26T13:40:29;3.95;;;3.55;;
60464;SDS011;46314;52.392;9.758;2024-02-26T13:42:55;5.30;;;3.50;;
60464;SDS011;46314;52.392;9.758;2024-02-26T13:45:22;4.60;;;2.95;;
60464;SDS011;46314;52.392;9.758;2024-02-26T13:47:50;3.83;;;3.40;;
60464;SDS011;46314;52.392;9.758;2024-02-26T13:50:17;3.58;;;2.78;;
60464;SDS011;46314;52.392;9.758;2024-02-26T13:52:44;4.85;;;3.40;;
60464;SDS011;46314;52.392;9.758;2024-02-26T13:55:10;4.30;;;3.40;;
60464;SDS011;46314;52.392;9.758;2024-02-26T13:57:37;4.28;;;3.35;;
60464;SDS011;46314;52.392;9.758;2024-02-26T14:00:04;4.32;;;3.63;;
60464;SDS011;46314;52.392;9.758;2024-02-26T14:02:31;4.72;;;2.85;;
60464;SDS011;46314;52.392;9.758;2024-02-26T14:04:59;4.28;;;3.45;;
60464;SDS011;46314;52.392;9.758;2024-02-26T14:07:26;3.10;;;2.72;;
60464;SDS011;46314;52.392;9.758;2024-02-26T14:09:52;4.60;;;3.83;;
60464;SDS011;46314;52.392;9.758;2024-02-26T14:12:19;4.68;;;3.38;;
60464;SDS011;46314;52.392;9.758;2024-02-26T14:14:50;4.53;;;3.03;;
60464;SDS011;46314;52.392;9.758;2024-02-26T14:17:16;4.35;;;3.35;;
60464;SDS011;46314;52.392;9.758;2024-02-26T14:19:43;3.08;;;2.42;;
60464;SDS011;46314;52.392;9.758;2024-02-26T14:22:11;3.97;;;2.65;;
60464;SDS011;46314;52.392;9.758;2024-02-26T14:24:38;4.45;;;2.72;;
60464;SDS011;46314;52.392;9.758;2024-02-26T14:27:04;3.45;;;3.10;;
60464;SDS011;46314;52.392;9.758;2024-02-26T14:29:31;4.18;;;3.35;;
60464;SDS011;46314;52.392;9.758;2024-02-26T14:31:58;5.07;;;3.88;;
60464;SDS011;46314;52.392;9.758;2024-02-26T14:34:24;4.15;;;3.33;;
60464;SDS011;46314;52.392;9.758;2024-02-26T14:36:51;3.88;;;3.28;;
60464;SDS011;46314;52.392;9.758;2024-02-26T14:39:19;4.35;;;2.60;;
60464;SDS011;46314;52.392;9.758;2024-02-26T14:41:45;3.17;;;2.75;;
60464;SDS011;46314;52.392;9.758;2024-02-26T14:44:12;3.42;;;2.97;;
60464;SDS011;46314;52.392;9.758;2024-02-26T14:46:38;4.30;;;2.88;;
60464;SDS011;46314;52.392;9.758;2024-02-26T14:49:05;3.25;;;2.80;;
60464;SDS011;46314;52.392;9.758;2024-02-26T14:51:31;3.78;;;3.38;;
60464;SDS011;46314;52.392;9.758;2024-02-26T14:53:58;3.97;;;2.88;;
60464;SDS011;46314;52.392;9.758;2024-02-26T14:56:26;3.58;;;2.70;;